Time;durP1;ratioP1;P1;durP2;ratioP2;P2;SDS_P1;SDS_P2;PMS_P1;PMS_P2;Temp;Humidity;BMP_temperature;BMP_pressure;BME280_temperature;BME280_humidity;BME280_pressure;Samples;Min_cycle;Max_cycle;Signal;HPM_P1;HPM_P2
2024/03/16 00:00:49;;;;;;;6.53;3.92;;;11.80;99.90;;;;;;5071169;28;20102;-47
2024/03/16 00:03:16;;;;;;;6.50;4.00;;;11.80;99.90;;;;;;5073695;28;20047;-49
2024/03/16 00:05:42;;;;;;;5.72;3.70;;;11.80;99.90;;;;;;5066118;28;20472;-49
2024/03/16 00:08:09;;;;;;;5.38;3.60;;;11.70;99.90;;;;;;5073344;28;20159;-49
2024/03/16 00:10:36;;;;;;;4.82;3.42;;;11.80;99.90;;;;;;5069002;28;20142;-44
2024/03/16 00:13:06;;;;;;;5.43;3.60;;;11.70;99.90;;;;;;5074670;28;20198;-45
2024/03/16 00:15:33;;;;;;;9.25;4.13;;;11.70;99.90;;;;;;5073080;28;20250;-51
2024/03/16 00:18:00;;;;;;;6.40;3.60;;;11.70;99.90;;;;;;5074381;28;20040;-52
2024/03/16 00:20:27;;;;;;;10.43;4.22;;;11.60;99.90;;;;;;5073478;28;20047;-46
2024/03/16 00:22:54;;;;;;;8.57;3.92;;;11.60;99.90;;;;;;5075253;28;20082;-45
2024/03/16 00:25:21;;;;;;;6.82;4.10;;;11.50;99.90;;;;;;5079318;28;20260;-47
2024/03/16 00:27:52;;;;;;;8.20;4.65;;;11.40;99.90;;;;;;5072916;28;20052;-45
2024/03/16 00:30:23;;;;;;;7.70;4.18;;;11.30;99.90;;;;;;5075617;28;20044;-43
2024/03/16 00:32:51;;;;;;;7.50;4.25;;;11.20;99.90;;;;;;5069907;28;20048;-44
2024/03/16 00:35:18;;;;;;;7.80;4.25;;;11.10;99.90;;;;;;5063395;28;20120;-47
2024/03/16 00:37:46;;;;;;;7.13;4.05;;;11.10;99.90;;;;;;5070114;28;20053;-47
2024/03/16 00:40:15;;;;;;;10.93;4.65;;;11.00;99.90;;;;;;5068193;28;20135;-45
2024/03/16 00:42:42;;;;;;;6.03;3.80;;;10.90;99.90;;;;;;5069659;28;20049;-46
2024/03/16 00:45:09;;;;;;;6.63;4.18;;;10.80;99.90;;;;;;5072780;28;20076;-46
2024/03/16 00:47:36;;;;;;;9.15;4.00;;;10.80;99.90;;;;;;5072494;28;20040;-47
2024/03/16 00:50:03;;;;;;;6.75;3.90;;;10.80;99.90;;;;;;5074957;28;20076;-47
2024/03/16 00:52:30;;;;;;;6.72;4.13;;;10.80;99.90;;;;;;5073379;28;20401;-47
2024/03/16 00:54:57;;;;;;;7.38;4.35;;;10.70;99.90;;;;;;5074099;28;20319;-46
2024/03/16 00:57:24;;;;;;;7.57;4.03;;;10.80;99.90;;;;;;5068293;28;20037;-47
2024/03/16 00:59:51;;;;;;;11.27;4.00;;;10.80;99.90;;;;;;5075310;28;20123;-51
2024/03/16 01:02:18;;;;;;;5.75;3.60;;;10.80;99.90;;;;;;5072719;28;20076;-53
2024/03/16 01:04:45;;;;;;;7.60;3.35;;;10.70;99.90;;;;;;5072870;28;20424;-52
2024/03/16 01:07:12;;;;;;;8.07;3.55;;;10.60;99.90;;;;;;5074040;28;20055;-46
2024/03/16 01:09:39;;;;;;;7.63;3.22;;;10.60;99.90;;;;;;5079464;28;20052;-45
2024/03/16 01:12:06;;;;;;;9.43;3.90;;;10.60;99.90;;;;;;5077756;28;20052;-46
2024/03/16 01:14:33;;;;;;;6.82;3.67;;;10.50;99.90;;;;;;5073253;28;20039;-45
2024/03/16 01:17:00;;;;;;;6.20;3.50;;;10.50;99.90;;;;;;5077671;28;20114;-46
2024/03/16 01:19:27;;;;;;;6.10;3.33;;;10.50;99.90;;;;;;5073423;28;20350;-48
2024/03/16 01:21:54;;;;;;;5.55;3.38;;;10.40;99.90;;;;;;5074177;28;20053;-47
2024/03/16 01:24:21;;;;;;;6.07;3.42;;;10.40;99.90;;;;;;5074793;28;20040;-48
2024/03/16 01:26:49;;;;;;;7.53;2.83;;;10.40;99.90;;;;;;5069430;28;20048;-47
2024/03/16 01:29:15;;;;;;;4.28;2.60;;;10.40;99.90;;;;;;5076606;28;20044;-47
2024/03/16 01:31:43;;;;;;;4.93;2.45;;;10.40;99.90;;;;;;5068213;28;20543;-46
2024/03/16 01:34:10;;;;;;;4.03;2.20;;;10.40;99.90;;;;;;5075757;28;20405;-44
2024/03/16 01:36:38;;;;;;;3.92;2.05;;;10.50;99.90;;;;;;5072474;28;20041;-48
2024/03/16 01:39:05;;;;;;;2.78;1.95;;;10.50;99.90;;;;;;5073241;28;20210;-50
2024/03/16 01:41:32;;;;;;;4.68;2.03;;;10.50;99.90;;;;;;5072178;28;20040;-48
2024/03/16 01:44:10;;;;;;;4.15;1.85;;;10.60;99.90;;;;;;5074731;28;20041;-46
2024/03/16 01:46:41;;;;;;;3.80;1.58;;;10.60;99.90;;;;;;5071555;28;20242;-49
2024/03/16 01:49:09;;;;;;;3.95;1.80;;;10.50;99.90;;;;;;5076031;28;20136;-47
2024/03/16 01:51:37;;;;;;;3.40;1.40;;;10.50;99.90;;;;;;5074899;28;20089;-44
2024/03/16 01:54:08;;;;;;;3.13;1.40;;;10.50;99.90;;;;;;5071651;28;20142;-48
2024/03/16 01:56:34;;;;;;;4.32;1.30;;;10.40;99.90;;;;;;5070948;28;20044;-47
2024/03/16 01:59:02;;;;;;;3.45;1.30;;;10.30;99.90;;;;;;5072720;28;20076;-49
2024/03/16 02:01:31;;;;;;;4.13;1.30;;;10.30;99.90;;;;;;5072867;28;20060;-47
2024/03/16 02:03:58;;;;;;;2.60;1.50;;;10.30;99.90;;;;;;5077037;28;20122;-48
2024/03/16 02:06:26;;;;;;;3.85;1.30;;;10.20;99.90;;;;;;5070438;28;20091;-47
2024/03/16 02:08:54;;;;;;;1.98;1.35;;;10.20;99.90;;;;;;5075586;28;20428;-47
2024/03/16 02:11:21;;;;;;;2.72;1.20;;;10.20;99.90;;;;;;5072342;28;20067;-46
2024/03/16 02:13:49;;;;;;;2.80;1.20;;;10.10;99.90;;;;;;5073045;28;20143;-48
2024/03/16 02:16:16;;;;;;;2.85;1.15;;;10.00;99.90;;;;;;5073009;28;20094;-45
2024/03/16 02:18:43;;;;;;;2.38;1.20;;;10.00;99.90;;;;;;5070011;28;20037;-46
2024/03/16 02:21:10;;;;;;;3.28;1.30;;;9.90;99.90;;;;;;5073014;28;20063;-48
2024/03/16 02:23:39;;;;;;;1.70;1.10;;;9.80;99.90;;;;;;5069152;28;20057;-45
2024/03/16 02:26:07;;;;;;;1.15;0.90;;;9.70;99.90;;;;;;5071699;28;20041;-50
2024/03/16 02:28:34;;;;;;;1.88;1.08;;;9.70;99.90;;;;;;5069814;28;20214;-46
2024/03/16 02:31:01;;;;;;;4.63;1.30;;;9.70;99.90;;;;;;5072634;28;20516;-51
2024/03/16 02:33:28;;;;;;;2.28;1.20;;;9.80;99.90;;;;;;5068560;28;20432;-46
2024/03/16 02:35:57;;;;;;;4.32;1.33;;;9.80;99.90;;;;;;5071386;28;20078;-49
2024/03/16 02:38:23;;;;;;;1.98;1.20;;;9.90;99.90;;;;;;5071346;28;20036;-47
2024/03/16 02:40:52;;;;;;;2.38;1.00;;;9.90;99.90;;;;;;5069430;28;20123;-49
2024/03/16 02:43:19;;;;;;;3.33;1.20;;;9.90;99.90;;;;;;5074133;28;20041;-45
2024/03/16 02:45:46;;;;;;;1.98;1.00;;;9.80;99.90;;;;;;5069315;28;20420;-45
2024/03/16 02:48:13;;;;;;;2.20;1.10;;;9.90;99.90;;;;;;5074752;28;20044;-44
2024/03/16 02:50:41;;;;;;;2.70;1.15;;;9.80;99.90;;;;;;5075258;28;20044;-46
2024/03/16 02:53:08;;;;;;;3.42;1.20;;;9.90;99.90;;;;;;5069372;28;20059;-47
2024/03/16 02:55:35;;;;;;;1.67;1.10;;;10.00;99.90;;;;;;5074941;28;20079;-44
2024/03/16 02:58:02;;;;;;;2.00;1.13;;;9.90;99.90;;;;;;5073461;28;20123;-47
2024/03/16 03:00:29;;;;;;;1.45;1.15;;;9.90;99.90;;;;;;5075867;28;20055;-45
2024/03/16 03:02:57;;;;;;;1.65;1.10;;;9.90;99.90;;;;;;5076210;28;20432;-47
2024/03/16 03:05:24;;;;;;;1.23;1.08;;;9.80;99.90;;;;;;5072120;28;20135;-49
2024/03/16 03:07:52;;;;;;;2.88;1.10;;;9.80;99.90;;;;;;5070467;28;20060;-46
2024/03/16 03:10:21;;;;;;;3.28;1.10;;;9.80;99.90;;;;;;5072495;28;20461;-46
2024/03/16 03:12:48;;;;;;;3.10;1.35;;;9.80;99.90;;;;;;5066338;28;20054;-45
2024/03/16 03:15:15;;;;;;;2.35;1.35;;;9.90;99.90;;;;;;5067877;28;20039;-50
2024/03/16 03:17:42;;;;;;;2.30;1.30;;;9.90;99.90;;;;;;5067872;28;20064;-50
2024/03/16 03:20:10;;;;;;;2.75;1.25;;;9.80;99.90;;;;;;5067893;28;21051;-48
2024/03/16 03:22:37;;;;;;;1.45;1.20;;;9.80;99.90;;;;;;5070837;28;20058;-48
2024/03/16 03:25:05;;;;;;;1.55;1.15;;;9.80;99.90;;;;;;5073230;28;20060;-44
2024/03/16 03:27:33;;;;;;;1.85;1.30;;;9.80;99.90;;;;;;5067976;28;20047;-46
2024/03/16 03:30:00;;;;;;;3.88;1.67;;;9.70;99.90;;;;;;5068584;28;20125;-46
2024/03/16 03:32:28;;;;;;;4.68;1.85;;;9.70;99.90;;;;;;5066284;28;20401;-44
2024/03/16 03:34:55;;;;;;;2.60;1.63;;;9.70;99.90;;;;;;5069807;28;20044;-47
2024/03/16 03:37:22;;;;;;;3.33;1.40;;;9.70;99.90;;;;;;5072172;28;20044;-47
2024/03/16 03:39:52;;;;;;;3.13;1.33;;;9.60;99.90;;;;;;5071286;28;20092;-49
2024/03/16 03:42:24;;;;;;;3.72;1.35;;;9.60;99.90;;;;;;5073624;28;20040;-45
2024/03/16 03:45:11;;;;;;;1.98;1.30;;;9.60;99.90;;;;;;5065597;28;20078;-49
2024/03/16 03:48:00;;;;;;;2.90;1.48;;;9.60;99.90;;;;;;5070941;28;20043;-51
2024/03/16 03:50:28;;;;;;;2.95;1.48;;;9.60;99.90;;;;;;5075965;28;20044;-46
2024/03/16 03:52:59;;;;;;;3.85;1.50;;;9.60;99.90;;;;;;5079453;28;20036;-43
2024/03/16 03:55:26;;;;;;;3.70;1.52;;;9.60;99.90;;;;;;5073300;28;20040;-50
2024/03/16 03:57:53;;;;;;;3.35;1.80;;;9.60;99.90;;;;;;5080068;28;20048;-46
2024/03/16 04:00:22;;;;;;;5.18;2.15;;;9.60;99.90;;;;;;5073837;28;20036;-46
2024/03/16 04:02:48;;;;;;;3.22;1.48;;;9.70;99.90;;;;;;5068979;28;20123;-45
2024/03/16 04:05:15;;;;;;;4.65;1.80;;;9.60;99.90;;;;;;5077235;28;20062;-45
2024/03/16 04:07:43;;;;;;;3.13;1.38;;;9.60;99.90;;;;;;5062886;28;20049;-45
2024/03/16 04:10:10;;;;;;;4.53;1.30;;;9.60;99.90;;;;;;5067359;28;20131;-48
2024/03/16 04:12:37;;;;;;;5.10;1.60;;;9.60;99.90;;;;;;5068277;28;20041;-43
2024/03/16 04:15:05;;;;;;;3.45;1.38;;;9.50;99.90;;;;;;5072918;28;20067;-50
2024/03/16 04:17:32;;;;;;;2.70;1.20;;;9.60;99.90;;;;;;5075826;28;20374;-46
2024/03/16 04:19:58;;;;;;;3.42;1.45;;;9.60;99.90;;;;;;5071167;28;20056;-45
2024/03/16 04:22:25;;;;;;;2.83;1.70;;;9.60;99.90;;;;;;5075867;28;20040;-48
2024/03/16 04:24:52;;;;;;;2.22;1.20;;;9.60;99.90;;;;;;5069549;28;20429;-46
2024/03/16 04:27:19;;;;;;;2.10;1.27;;;9.60;99.90;;;;;;5068054;28;20098;-46
2024/03/16 04:29:46;;;;;;;2.22;1.35;;;9.60;99.90;;;;;;5075670;28;20306;-48
2024/03/16 04:32:14;;;;;;;2.25;1.38;;;9.70;99.90;;;;;;5072681;28;20044;-48
2024/03/16 04:34:41;;;;;;;2.30;1.35;;;9.60;99.90;;;;;;5076276;28;20123;-45
2024/03/16 04:37:08;;;;;;;3.25;1.40;;;9.70;99.90;;;;;;5078327;28;20049;-47
2024/03/16 04:39:35;;;;;;;2.95;1.10;;;9.70;99.90;;;;;;5073581;28;20148;-48
2024/03/16 04:42:02;;;;;;;2.03;1.30;;;9.70;99.90;;;;;;5077172;28;20052;-49
2024/03/16 04:44:29;;;;;;;2.83;1.83;;;9.70;99.90;;;;;;5076051;28;20066;-49
2024/03/16 04:46:56;;;;;;;1.88;1.20;;;9.60;99.90;;;;;;5074283;28;20048;-46
2024/03/16 04:49:23;;;;;;;2.28;1.42;;;9.60;99.90;;;;;;5079126;28;20464;-50
2024/03/16 04:51:50;;;;;;;2.95;1.35;;;9.70;99.90;;;;;;5076995;28;20152;-45
2024/03/16 04:54:16;;;;;;;2.58;1.42;;;9.70;99.90;;;;;;5071879;28;20047;-49
2024/03/16 04:56:43;;;;;;;3.08;1.58;;;9.70;99.90;;;;;;5074268;28;20037;-47
2024/03/16 04:59:11;;;;;;;3.70;1.50;;;9.80;99.90;;;;;;5069527;28;20398;-46
2024/03/16 05:01:38;;;;;;;2.80;1.30;;;9.70;99.90;;;;;;5070654;28;20036;-45
2024/03/16 05:04:05;;;;;;;2.70;1.40;;;9.70;99.90;;;;;;5079317;28;20127;-47
2024/03/16 05:06:33;;;;;;;2.70;1.33;;;9.80;99.90;;;;;;5069147;28;20041;-48
2024/03/16 05:09:05;;;;;;;4.00;1.60;;;9.80;99.90;;;;;;5075952;28;20127;-45
2024/03/16 05:11:33;;;;;;;3.70;1.48;;;9.80;99.90;;;;;;5069574;28;20094;-49
2024/03/16 05:14:01;;;;;;;4.28;1.40;;;9.70;99.90;;;;;;5076832;28;20102;-48
2024/03/16 05:16:28;;;;;;;2.47;1.40;;;9.70;99.90;;;;;;5070205;28;20382;-47
2024/03/16 05:18:55;;;;;;;3.38;1.65;;;9.70;99.90;;;;;;5071042;28;20044;-46
2024/03/16 05:21:22;;;;;;;3.83;1.40;;;9.70;99.90;;;;;;5069325;28;20045;-47
2024/03/16 05:23:49;;;;;;;2.38;1.48;;;9.60;99.90;;;;;;5060086;28;20120;-49
2024/03/16 05:26:16;;;;;;;3.53;1.70;;;9.50;99.90;;;;;;5070697;28;20059;-47
2024/03/16 05:28:42;;;;;;;2.70;1.50;;;9.50;99.90;;;;;;5070844;28;20076;-48
2024/03/16 05:31:10;;;;;;;4.53;1.60;;;9.50;99.90;;;;;;5073012;28;20084;-48
2024/03/16 05:33:37;;;;;;;3.35;1.92;;;9.40;99.90;;;;;;5067981;28;20045;-52
2024/03/16 05:36:05;;;;;;;3.95;1.80;;;9.40;99.90;;;;;;5074595;28;20052;-52
2024/03/16 05:38:32;;;;;;;4.75;1.90;;;9.40;99.90;;;;;;5075728;28;20047;-42
2024/03/16 05:40:59;;;;;;;4.57;1.75;;;9.40;99.90;;;;;;5071906;28;20067;-50
2024/03/16 05:43:26;;;;;;;2.88;1.80;;;9.50;99.90;;;;;;5073446;28;20135;-49
2024/03/16 05:45:53;;;;;;;3.85;2.13;;;9.50;99.90;;;;;;5068272;28;20206;-49
2024/03/16 05:48:20;;;;;;;4.03;1.98;;;9.50;99.90;;;;;;5071346;28;20056;-43
2024/03/16 05:50:50;;;;;;;4.63;1.80;;;9.60;99.90;;;;;;5074701;28;20036;-49
2024/03/16 05:53:17;;;;;;;4.28;2.00;;;9.50;99.90;;;;;;5067352;28;20067;-52
2024/03/16 05:55:44;;;;;;;4.43;2.30;;;9.60;99.90;;;;;;5067913;28;20052;-47
2024/03/16 05:58:11;;;;;;;7.18;2.70;;;9.60;99.90;;;;;;5071887;28;20131;-44
2024/03/16 06:00:38;;;;;;;4.88;2.25;;;9.50;99.90;;;;;;5067307;28;20063;-45
2024/03/16 06:03:05;;;;;;;4.95;2.50;;;9.60;99.90;;;;;;5072268;28;20551;-45
2024/03/16 06:05:38;;;;;;;3.55;2.03;;;9.60;99.90;;;;;;5072028;28;20067;-47
2024/03/16 06:08:05;;;;;;;4.88;2.22;;;9.70;99.90;;;;;;5072704;28;20076;-46
2024/03/16 06:10:32;;;;;;;4.32;2.13;;;9.70;99.90;;;;;;5074836;28;20119;-48
2024/03/16 06:12:59;;;;;;;4.25;2.38;;;9.70;99.90;;;;;;5077067;28;20063;-41
2024/03/16 06:15:26;;;;;;;5.50;2.20;;;9.70;99.90;;;;;;5073852;28;20147;-48
2024/03/16 06:17:53;;;;;;;5.63;2.40;;;9.70;99.90;;;;;;5075508;28;20052;-44
2024/03/16 06:20:20;;;;;;;3.40;2.10;;;9.70;99.90;;;;;;5073049;28;20044;-47
2024/03/16 06:22:50;;;;;;;4.53;2.40;;;9.70;99.90;;;;;;5070153;28;20060;-46
2024/03/16 06:25:20;;;;;;;3.55;2.20;;;9.70;99.90;;;;;;5078391;28;20126;-52
2024/03/16 06:27:49;;;;;;;3.30;2.08;;;9.80;99.90;;;;;;5065095;28;20049;-48
2024/03/16 06:30:17;;;;;;;3.65;2.10;;;9.90;99.90;;;;;;5075360;28;20123;-43
2024/03/16 06:35:29;;;;;;;6.45;2.10;;;9.90;99.90;;;;;;5068859;28;20332;-48
2024/03/16 06:37:56;;;;;;;3.85;2.30;;;9.90;99.90;;;;;;5072757;28;20040;-49
2024/03/16 06:40:23;;;;;;;4.72;1.98;;;9.90;99.90;;;;;;5071445;28;20124;-43
2024/03/16 06:42:50;;;;;;;3.55;1.70;;;10.00;99.90;;;;;;5073802;28;20140;-53
2024/03/16 06:45:17;;;;;;;4.93;2.17;;;10.00;99.90;;;;;;5073224;28;20079;-45
2024/03/16 06:47:44;;;;;;;5.78;2.38;;;10.10;99.90;;;;;;5069686;28;20497;-45
2024/03/16 06:50:11;;;;;;;4.97;2.00;;;10.10;99.90;;;;;;5068271;28;20425;-48
2024/03/16 06:52:38;;;;;;;6.18;2.60;;;10.20;99.90;;;;;;5071912;28;20060;-46
2024/03/16 06:55:06;;;;;;;4.50;1.80;;;10.30;99.90;;;;;;5071353;28;20060;-49
2024/03/16 06:57:33;;;;;;;4.85;1.80;;;10.40;99.90;;;;;;5074849;28;20077;-44
2024/03/16 07:00:01;;;;;;;4.15;1.85;;;10.40;99.90;;;;;;5074670;28;20048;-42
2024/03/16 07:02:28;;;;;;;6.22;1.80;;;10.40;99.90;;;;;;5066253;28;20511;-47
2024/03/16 07:04:56;;;;;;;5.13;2.15;;;10.40;99.90;;;;;;5068858;28;20426;-49
2024/03/16 07:07:23;;;;;;;3.58;1.80;;;10.40;99.90;;;;;;5067140;28;20494;-50
2024/03/16 07:09:49;;;;;;;2.63;1.60;;;10.50;99.90;;;;;;5069539;28;20038;-44
2024/03/16 07:12:17;;;;;;;4.72;1.77;;;10.60;99.90;;;;;;5076700;28;20101;-47
2024/03/16 07:14:44;;;;;;;4.30;1.60;;;10.60;99.90;;;;;;5068616;28;20127;-45
2024/03/16 07:17:10;;;;;;;4.47;2.00;;;10.60;99.90;;;;;;5072275;28;20423;-52
2024/03/16 07:19:37;;;;;;;2.67;1.40;;;10.60;99.90;;;;;;5066847;28;20138;-50
2024/03/16 07:22:04;;;;;;;3.65;1.80;;;10.70;99.90;;;;;;5073612;28;20490;-49
2024/03/16 07:24:32;;;;;;;4.15;1.60;;;10.80;99.90;;;;;;5072823;28;20048;-49
2024/03/16 07:26:58;;;;;;;3.60;1.40;;;10.70;99.90;;;;;;5075938;28;20080;-47
2024/03/16 07:29:26;;;;;;;3.13;1.58;;;10.80;99.90;;;;;;5073870;28;20044;-50
2024/03/16 07:31:52;;;;;;;4.35;1.50;;;10.90;99.90;;;;;;5073450;28;20071;-54
2024/03/16 07:34:21;;;;;;;3.45;1.70;;;11.00;99.90;;;;;;5075467;28;20560;-48
2024/03/16 07:36:48;;;;;;;3.40;1.48;;;11.20;99.90;;;;;;5074142;28;20053;-47
2024/03/16 07:39:16;;;;;;;4.20;1.83;;;11.20;99.90;;;;;;5077285;28;20074;-48
2024/03/16 07:41:42;;;;;;;2.65;1.60;;;11.20;99.90;;;;;;5073158;28;20555;-45
2024/03/16 07:44:10;;;;;;;3.28;2.03;;;11.30;99.90;;;;;;5077320;28;20048;-48
2024/03/16 07:46:37;;;;;;;3.92;1.55;;;11.40;99.90;;;;;;5071742;28;20033;-45
2024/03/16 07:49:04;;;;;;;4.65;1.80;;;11.50;99.90;;;;;;5076675;28;20609;-49
2024/03/16 07:51:36;;;;;;;2.85;1.55;;;11.60;99.90;;;;;;5067836;28;20064;-45
2024/03/16 07:54:03;;;;;;;3.53;1.85;;;11.50;99.90;;;;;;5075443;28;20074;-49
2024/03/16 07:56:30;;;;;;;5.22;1.60;;;11.70;99.90;;;;;;5075936;28;20102;-51
2024/03/16 07:58:57;;;;;;;3.63;1.40;;;11.50;99.90;;;;;;5074146;28;20167;-51
2024/03/16 08:01:24;;;;;;;5.97;2.33;;;11.50;99.90;;;;;;5076009;28;20064;-53
2024/03/16 08:03:52;;;;;;;3.53;1.40;;;11.70;99.90;;;;;;5066169;28;20049;-47
2024/03/16 08:06:19;;;;;;;2.92;1.38;;;11.70;99.90;;;;;;5062615;28;20052;-48
2024/03/16 08:08:46;;;;;;;4.75;1.50;;;11.80;99.90;;;;;;5069483;28;20106;-50
2024/03/16 08:11:13;;;;;;;2.80;1.63;;;11.80;99.90;;;;;;5076136;28;20051;-53
2024/03/16 08:13:40;;;;;;;4.50;1.83;;;12.00;99.90;;;;;;5072726;28;20110;-46
2024/03/16 08:16:07;;;;;;;3.22;1.60;;;12.00;99.90;;;;;;5071652;28;20059;-49
2024/03/16 08:18:34;;;;;;;3.55;1.42;;;12.00;99.90;;;;;;5072059;28;20044;-45
2024/03/16 08:21:01;;;;;;;4.82;1.70;;;11.90;99.90;;;;;;5071698;28;20048;-49
2024/03/16 08:23:30;;;;;;;4.32;1.63;;;11.70;99.90;;;;;;5074614;28;20511;-48
2024/03/16 08:25:58;;;;;;;3.25;1.60;;;11.80;99.90;;;;;;5073329;28;20036;-46
2024/03/16 08:28:25;;;;;;;2.50;1.30;;;11.70;99.90;;;;;;5075232;28;20109;-45
2024/03/16 08:30:52;;;;;;;3.03;1.40;;;11.80;99.90;;;;;;5075374;28;20110;-44
2024/03/16 08:33:19;;;;;;;3.28;1.50;;;11.80;99.90;;;;;;5077640;28;20055;-46
2024/03/16 08:35:46;;;;;;;3.75;1.50;;;11.70;99.90;;;;;;5076218;28;20095;-45
2024/03/16 08:38:13;;;;;;;3.28;1.80;;;11.70;99.90;;;;;;5079572;28;20417;-50
2024/03/16 08:40:40;;;;;;;3.22;1.52;;;11.80;99.90;;;;;;5074632;28;20040;-45
2024/03/16 08:43:07;;;;;;;1.83;1.17;;;11.70;99.90;;;;;;5080870;28;20055;-48
2024/03/16 08:45:37;;;;;;;3.60;1.33;;;11.80;99.90;;;;;;5077554;28;20048;-46
2024/03/16 08:48:06;;;;;;;3.97;1.20;;;11.80;99.90;;;;;;5078758;28;20044;-47
2024/03/16 08:50:33;;;;;;;2.22;1.42;;;11.70;99.90;;;;;;5074551;28;20052;-43
2024/03/16 08:53:00;;;;;;;3.33;1.30;;;11.70;99.90;;;;;;5074064;28;20067;-44
2024/03/16 08:55:27;;;;;;;2.78;1.48;;;11.60;99.90;;;;;;5066305;28;20123;-46
2024/03/16 08:57:54;;;;;;;3.25;1.40;;;11.50;99.90;;;;;;5070045;28;20533;-50
2024/03/16 09:00:21;;;;;;;3.30;1.58;;;11.40;99.90;;;;;;5074741;28;20096;-47
2024/03/16 09:02:50;;;;;;;3.30;1.38;;;11.20;99.90;;;;;;5077042;28;20049;-48
2024/03/16 09:05:16;;;;;;;2.78;1.30;;;11.10;99.90;;;;;;5073309;28;20148;-47
2024/03/16 09:07:44;;;;;;;3.03;1.25;;;11.00;99.90;;;;;;5065748;28;20143;-46
2024/03/16 09:10:10;;;;;;;3.15;1.33;;;11.00;99.90;;;;;;5072776;28;20048;-48
2024/03/16 09:12:38;;;;;;;2.53;1.20;;;11.10;99.90;;;;;;5073473;28;20151;-45
2024/03/16 09:15:06;;;;;;;3.13;1.40;;;11.20;99.90;;;;;;5071706;28;20147;-47
2024/03/16 09:17:33;;;;;;;4.50;1.65;;;11.10;99.90;;;;;;5073693;28;20044;-50
2024/03/16 09:20:10;;;;;;;2.65;1.42;;;11.20;99.90;;;;;;5073373;28;20112;-43
2024/03/16 09:22:37;;;;;;;4.03;1.48;;;11.30;99.90;;;;;;5074155;28;20505;-50
2024/03/16 09:25:08;;;;;;;2.22;1.33;;;11.30;99.90;;;;;;5077883;28;20084;-49
2024/03/16 09:27:36;;;;;;;4.63;1.50;;;11.20;99.90;;;;;;5067305;28;20044;-46
2024/03/16 09:30:05;;;;;;;4.05;1.63;;;11.30;99.90;;;;;;5071972;28;20056;-51
2024/03/16 09:32:34;;;;;;;3.33;1.40;;;11.30;99.90;;;;;;5074892;28;20047;-47
2024/03/16 09:35:01;;;;;;;1.95;1.30;;;11.30;99.90;;;;;;5077485;28;20147;-46
2024/03/16 09:37:27;;;;;;;2.85;1.42;;;11.40;99.90;;;;;;5075973;28;20048;-48
2024/03/16 09:39:55;;;;;;;1.55;1.20;;;11.40;99.90;;;;;;5073838;28;20047;-46
2024/03/16 09:42:22;;;;;;;2.75;1.40;;;11.40;99.90;;;;;;5070056;28;20589;-49
2024/03/16 09:44:49;;;;;;;17.00;1.75;;;11.40;99.90;;;;;;5065839;28;20048;-52
2024/03/16 09:47:16;;;;;;;7.97;1.50;;;11.40;99.90;;;;;;5072398;28;20478;-46
2024/03/16 09:49:42;;;;;;;2.53;1.40;;;11.50;99.90;;;;;;5073542;28;20044;-50
2024/03/16 09:52:13;;;;;;;2.97;1.50;;;11.50;99.90;;;;;;5065717;28;20430;-48
2024/03/16 09:54:41;;;;;;;12.95;1.85;;;11.70;99.90;;;;;;5066498;28;20760;-47
2024/03/16 09:57:17;;;;;;;2.60;1.35;;;12.10;99.90;;;;;;5072928;28;20036;-45
2024/03/16 09:59:48;;;;;;;4.03;1.40;;;12.40;99.90;;;;;;5078962;28;20044;-45
2024/03/16 10:02:20;;;;;;;3.10;1.60;;;12.90;99.90;;;;;;5071752;28;20056;-46
2024/03/16 10:04:48;;;;;;;3.55;1.38;;;13.20;99.90;;;;;;5074976;28;20070;-45
2024/03/16 10:07:14;;;;;;;4.03;1.60;;;13.50;99.90;;;;;;5069222;28;20438;-46
2024/03/16 10:09:55;;;;;;;3.05;1.70;;;13.40;99.90;;;;;;5073672;28;20056;-47
2024/03/16 10:12:22;;;;;;;2.92;1.38;;;13.60;99.90;;;;;;5071816;28;20056;-47
2024/03/16 10:15:20;;;;;;;2.42;1.50;;;13.60;99.90;;;;;;5069331;28;20094;-47
2024/03/16 10:17:49;;;;;;;4.13;1.67;;;13.50;99.90;;;;;;5066180;28;20044;-49
2024/03/16 10:20:15;;;;;;;2.60;1.42;;;13.30;99.90;;;;;;5073676;28;20059;-45
2024/03/16 10:22:46;;;;;;;2.83;1.50;;;13.40;99.90;;;;;;5065601;28;20501;-45
2024/03/16 10:25:13;;;;;;;2.95;1.67;;;13.40;99.90;;;;;;5077297;28;20536;-50
2024/03/16 10:27:40;;;;;;;2.80;1.40;;;13.10;99.90;;;;;;5066262;28;20068;-45
2024/03/16 10:30:11;;;;;;;4.88;1.77;;;13.20;99.90;;;;;;5074728;28;20135;-45
2024/03/16 10:32:38;;;;;;;2.37;1.60;;;13.10;99.90;;;;;;5066172;28;20056;-49
2024/03/16 10:35:14;;;;;;;2.55;1.60;;;12.90;99.90;;;;;;5071185;28;20033;-45
2024/03/16 10:37:45;;;;;;;3.20;1.73;;;12.80;99.90;;;;;;5066125;28;20155;-47
2024/03/16 10:40:24;;;;;;;3.03;1.40;;;12.70;99.90;;;;;;5071807;28;20054;-53
2024/03/16 10:42:51;;;;;;;2.88;1.63;;;13.00;99.90;;;;;;5069815;28;20049;-45
2024/03/16 10:45:20;;;;;;;2.17;1.40;;;13.00;99.90;;;;;;5074919;28;20424;-46
2024/03/16 10:47:53;;;;;;;2.53;1.33;;;13.10;99.90;;;;;;5066507;28;20631;-47
2024/03/16 10:50:29;;;;;;;3.80;1.38;;;13.30;99.90;;;;;;5074584;28;20060;-46
2024/03/16 10:52:56;;;;;;;3.22;1.40;;;13.40;99.90;;;;;;5064518;28;20048;-43
2024/03/16 10:55:24;;;;;;;4.82;1.60;;;13.90;99.90;;;;;;5070749;28;20046;-48
2024/03/16 10:57:54;;;;;;;1.55;1.13;;;14.30;99.90;;;;;;5069738;28;20052;-50
2024/03/16 11:00:20;;;;;;;2.65;1.02;;;14.50;99.90;;;;;;5073498;28;20085;-52
2024/03/16 11:03:07;;;;;;;1.42;1.17;;;14.90;99.90;;;;;;5068185;28;20115;-46
2024/03/16 11:05:35;;;;;;;2.08;1.27;;;14.70;99.90;;;;;;5067694;28;20098;-46
2024/03/16 11:08:11;;;;;;;1.70;1.45;;;14.90;99.90;;;;;;5069143;28;20367;-49
2024/03/16 11:10:42;;;;;;;3.13;1.45;;;15.20;99.90;;;;;;5066068;28;20509;-50
2024/03/16 11:13:17;;;;;;;1.88;1.30;;;15.20;99.90;;;;;;5075337;28;20302;-44
2024/03/16 11:15:47;;;;;;;1.67;1.42;;;15.30;99.90;;;;;;5066063;28;20505;-45
2024/03/16 11:18:19;;;;;;;2.20;1.55;;;15.50;99.90;;;;;;5073595;28;20048;-49
2024/03/16 11:20:50;;;;;;;2.17;1.55;;;15.80;99.90;;;;;;5069424;28;20122;-45
2024/03/16 11:23:28;;;;;;;1.88;1.48;;;15.20;99.90;;;;;;5067829;28;20032;-52
2024/03/16 11:25:58;;;;;;;3.63;1.80;;;15.00;99.90;;;;;;5065463;28;20045;-46
2024/03/16 11:28:42;;;;;;;2.22;1.70;;;14.20;99.90;;;;;;5068598;28;20059;-46
2024/03/16 11:31:29;;;;;;;3.30;1.50;;;14.10;99.90;;;;;;5067537;28;20056;-46
2024/03/16 11:33:58;;;;;;;2.30;1.65;;;14.00;99.90;;;;;;5066610;28;20040;-44
2024/03/16 11:36:24;;;;;;;2.95;1.75;;;14.10;99.90;;;;;;5068730;28;20132;-49
2024/03/16 11:38:51;;;;;;;2.88;2.10;;;13.80;99.90;;;;;;5071531;28;20411;-47
2024/03/16 11:41:18;;;;;;;2.63;1.88;;;13.60;99.90;;;;;;5066976;28;20110;-48
2024/03/16 11:43:48;;;;;;;3.33;2.20;;;13.90;99.90;;;;;;5068062;28;20048;-46
2024/03/16 11:46:19;;;;;;;2.67;1.90;;;14.30;99.90;;;;;;5069993;28;20036;-48
2024/03/16 11:48:45;;;;;;;4.55;2.10;;;14.50;99.90;;;;;;5067878;28;20048;-45
2024/03/16 11:51:13;;;;;;;3.33;2.40;;;14.60;99.90;;;;;;5081183;28;20499;-51
2024/03/16 11:53:42;;;;;;;4.22;2.53;;;14.70;99.90;;;;;;5062301;28;20044;-52
2024/03/16 11:56:11;;;;;;;3.22;2.13;;;15.30;99.90;;;;;;5073681;28;20530;-49
2024/03/16 11:58:41;;;;;;;3.58;2.22;;;15.80;99.90;;;;;;5070522;28;20036;-51
2024/03/16 12:01:15;;;;;;;5.10;2.50;;;16.20;99.90;;;;;;5073938;28;20043;-47
2024/03/16 12:03:42;;;;;;;2.40;2.20;;;15.90;99.90;;;;;;5072267;28;20045;-49
2024/03/16 12:06:09;;;;;;;2.70;1.98;;;15.80;99.90;;;;;;5056686;28;20105;-55
2024/03/16 12:08:37;;;;;;;3.17;2.00;;;15.40;99.90;;;;;;5074949;28;20044;-46
2024/03/16 12:11:03;;;;;;;3.35;2.20;;;15.60;99.90;;;;;;5082559;28;20098;-47
2024/03/16 12:13:29;;;;;;;2.50;2.00;;;15.80;99.90;;;;;;5084601;28;20040;-45
2024/03/16 12:15:56;;;;;;;3.22;2.28;;;15.80;99.90;;;;;;5079015;28;20049;-46
2024/03/16 12:18:22;;;;;;;3.85;2.30;;;16.40;99.90;;;;;;5083606;28;20040;-47
2024/03/16 12:20:49;;;;;;;2.80;2.40;;;17.00;99.90;;;;;;5080401;28;20124;-53
2024/03/16 12:23:15;;;;;;;2.97;2.30;;;17.80;99.90;;;;;;5061585;28;20036;-46
2024/03/16 12:25:41;;;;;;;3.70;2.53;;;17.90;99.90;;;;;;5074964;28;20575;-46
2024/03/16 12:28:08;;;;;;;5.80;2.80;;;17.50;99.90;;;;;;5073857;28;20044;-42
2024/03/16 12:30:34;;;;;;;3.80;2.70;;;17.10;99.90;;;;;;5077563;28;20059;-46
2024/03/16 12:33:00;;;;;;;2.83;2.53;;;16.80;99.90;;;;;;5057443;28;20492;-49
2024/03/16 12:35:31;;;;;;;4.20;2.50;;;16.90;99.90;;;;;;5074999;28;20102;-45
2024/03/16 12:38:00;;;;;;;3.80;2.40;;;16.60;99.90;;;;;;5077584;28;20067;-46
2024/03/16 12:40:26;;;;;;;3.05;2.53;;;16.50;99.90;;;;;;5071553;28;20066;-46
2024/03/16 12:42:54;;;;;;;4.82;2.80;;;16.10;99.90;;;;;;5075688;28;20061;-44
2024/03/16 12:45:20;;;;;;;2.88;2.40;;;15.80;99.90;;;;;;5073204;28;20139;-50
2024/03/16 12:47:46;;;;;;;5.88;4.30;;;15.30;99.90;;;;;;5071822;28;20352;-48
2024/03/16 12:50:12;;;;;;;3.67;2.50;;;15.30;99.90;;;;;;5076869;28;20117;-45
2024/03/16 12:52:38;;;;;;;3.47;2.70;;;15.10;99.90;;;;;;5073318;28;20413;-45
2024/03/16 12:55:09;;;;;;;4.88;2.65;;;14.90;99.90;;;;;;5059140;28;20048;-46
2024/03/16 12:57:35;;;;;;;4.13;3.10;;;14.90;99.90;;;;;;5073427;28;20093;-47